Stations météo

réclame
Mon MeteoGroup
Heino aws, Pays-Bas (6278): Température de l'air & dewpoint: 19.09.2018 11:00:00 - 25.09.2018 11:00:00 (CEST)Heino aws, Pays-Bas (6278): Température de l'air 5cm: 19.09.2018 11:00:00 - 25.09.2018 11:00:00 (CEST)Heino aws, Pays-Bas (6278): Vitesse du vent & gusts: 19.09.2018 11:00:00 - 25.09.2018 11:00:00 (CEST)Heino aws, Pays-Bas (6278): Direction du vent: 19.09.2018 11:00:00 - 25.09.2018 11:00:00 (CEST)Heino aws, Pays-Bas (6278): Quantités de précipitations: 19.09.2018 11:00:00 - 25.09.2018 11:00:00 (CEST)
Date & Time tt [°C] td [°C] tt 5cm [°C] ff [km/h] ff [knt] fx [km/h] fx [knt] dd rr [mm]
25.09.2018 11:00:00 12,9 9,0 13,5 7 4 14 8 W 0,0
25.09.2018 10:00:00 10,7 8,4 10,7 4 2 7 4 WSW 0,0
25.09.2018 09:00:00 7,4 7,1 6,4 4 2 4 2 SW 0,0
25.09.2018 08:00:00 3,3 3,2 0,8 4 2 7 4 SW 0,0
25.09.2018 07:00:00 3,3 3,2 0,7 4 2 7 4 SW 0,0
25.09.2018 06:00:00 4,3 4,2 1,4 4 2 7 4 SW 0,0
25.09.2018 05:00:00 4,4 4,2 1,5 4 2 7 4 SW 0,0
25.09.2018 04:00:00 4,5 4,2 1,4 4 2 7 4 SW 0,0
25.09.2018 03:00:00 5,4 5,2 2,7 7 4 11 6 WSW 0,0
25.09.2018 02:00:00 6,3 5,8 5,4 7 4 11 6 WSW 0,0
25.09.2018 01:00:00 4,7 4,5 1,9 4 2 7 4 SW 0,0
25.09.2018 00:00:00 5,3 5,0 2,3 4 2 7 4 WSW 0,0
24.09.2018 23:00:00 6,0 5,1 3,4 7 4 7 4 WSW 0,0
24.09.2018 22:00:00 7,2 5,7 5,2 7 4 7 4 W 0,0
24.09.2018 21:00:00 7,2 6,1 5,8 7 4 11 6 SW 0,0
24.09.2018 20:00:00 9,4 6,0 7,1 4 2 14 8 WNW 0,0
24.09.2018 19:00:00 10,8 6,7 9,1 7 4 43 23 NW 0,0
24.09.2018 18:00:00 13,0 7,2 12,4 11 6 29 16 NW 0,0
24.09.2018 17:00:00 12,9 7,9 12,6 11 6 43 23 NNW 0,5
24.09.2018 16:00:00 14,7 6,4 15,6 18 10 43 23 WNW 0,0
24.09.2018 15:00:00 13,4 5,4 13,9 18 10 43 23 NW 0,0
24.09.2018 14:00:00 13,9 6,0 14,0 18 10 - - NW -
24.09.2018 13:00:00 - - - - - - - - -
24.09.2018 12:00:00 12,7 8,9 12,0 11 6 32 18 WNW 0,2
24.09.2018 11:00:00 12,6 7,2 12,0 11 6 22 12 WNW 0,0
24.09.2018 10:00:00 11,1 6,7 9,8 7 4 43 23 WNW 0,0
24.09.2018 09:00:00 9,7 7,1 8,3 7 4 18 10 W 0,0
24.09.2018 08:00:00 6,9 5,4 5,2 11 6 14 8 WSW 0,0
24.09.2018 07:00:00 6,1 4,9 2,7 7 4 11 6 WSW 0,0
24.09.2018 06:00:00 5,5 4,3 3,1 7 4 14 8 WSW 0,0
24.09.2018 05:00:00 6,2 4,6 4,0 7 4 11 6 WSW 0,0
24.09.2018 04:00:00 7,3 4,8 5,7 7 4 22 12 W 0,0
24.09.2018 03:00:00 8,3 5,2 5,8 11 6 18 10 W 0,0
24.09.2018 02:00:00 7,7 4,9 6,1 7 4 22 12 W 0,0
24.09.2018 01:00:00 7,0 4,8 5,4 7 4 18 10 W 0,0
24.09.2018 00:00:00 7,3 5,0 5,7 7 4 14 8 W 0,0
23.09.2018 23:00:00 8,7 5,9 6,7 7 4 14 8 WNW 0,0
23.09.2018 22:00:00 8,3 7,2 7,2 7 4 14 8 W 0,0
23.09.2018 21:00:00 9,4 7,8 8,6 7 4 18 10 WNW 0,0
23.09.2018 20:00:00 9,7 8,5 9,1 11 6 18 10 WNW 0,0
23.09.2018 19:00:00 9,3 8,2 9,0 11 6 18 10 W 0,2
23.09.2018 18:00:00 9,7 8,4 9,6 11 6 18 10 NW 0,8
23.09.2018 17:00:00 9,8 8,7 9,8 7 4 14 8 NNW 1,5
23.09.2018 16:00:00 9,9 9,1 9,8 7 4 29 16 N 2,7
23.09.2018 15:00:00 10,5 9,2 10,4 7 4 18 10 N 1,7
23.09.2018 14:00:00 10,8 10,1 10,8 11 6 18 10 NNE 1,9
23.09.2018 13:00:00 10,9 10,0 11,2 4 2 18 10 N 0,9
23.09.2018 12:00:00 10,9 10,2 11,1 7 4 14 8 NNE 1,1
23.09.2018 11:00:00 11,0 9,9 11,1 4 2 7 4 NE 0,0
23.09.2018 10:00:00 10,6 9,8 11,0 4 2 7 4 NE 0,0
23.09.2018 09:00:00 10,1 9,8 10,2 4 2 7 4 NE 0,0
23.09.2018 08:00:00 9,6 9,4 9,1 4 2 7 4 E 0,0
23.09.2018 07:00:00 9,1 8,8 8,9 4 2 4 2 E 0,0
23.09.2018 06:00:00 9,8 9,5 9,6 4 2 7 4 SE 0,0
23.09.2018 05:00:00 10,0 9,7 9,9 4 2 7 4 SE 0,0
23.09.2018 04:00:00 10,1 9,7 10,0 4 2 11 6 SSW 0,0
23.09.2018 03:00:00 10,2 9,8 10,0 4 2 11 6 S 0,0
23.09.2018 02:00:00 10,5 10,0 10,4 7 4 14 8 SSW 0,0
23.09.2018 01:00:00 10,6 10,1 10,5 7 4 11 6 SSW 0,0
23.09.2018 00:00:00 10,7 10,1 10,5 7 4 14 8 SSW 0,0
22.09.2018 23:00:00 10,7 10,2 10,6 7 4 18 10 SW 0,0
22.09.2018 22:00:00 10,9 10,1 10,7 11 6 22 12 SW 0,3
22.09.2018 21:00:00 11,0 9,9 10,7 14 8 25 14 WSW 0,1
22.09.2018 20:00:00 10,9 9,5 10,5 14 8 29 16 SW 0,0
22.09.2018 19:00:00 11,2 9,6 10,9 14 8 25 14 SW 0,2
22.09.2018 18:00:00 11,7 9,9 11,5 14 8 29 16 SW 0,1
22.09.2018 17:00:00 11,6 9,7 11,4 14 8 32 18 SW 0,0
22.09.2018 16:00:00 11,7 9,1 11,6 18 10 36 19 SW 0,5
22.09.2018 15:00:00 14,0 11,5 14,1 11 6 29 16 SW 0,5
22.09.2018 14:00:00 14,3 10,6 14,5 11 6 25 14 SW 0,0
22.09.2018 13:00:00 11,6 8,6 11,1 11 6 40 21 W 0,0
22.09.2018 12:00:00 12,9 11,1 12,7 11 6 40 21 SW 1,8
22.09.2018 11:00:00 13,5 9,9 14,0 18 10 36 19 SW 0,0
22.09.2018 10:00:00 12,6 9,5 12,2 14 8 29 16 SW 0,0
22.09.2018 09:00:00 11,0 8,4 10,1 14 8 25 14 SW 0,0
22.09.2018 08:00:00 9,9 7,9 8,9 11 6 22 12 SW 0,0
22.09.2018 07:00:00 9,8 8,2 8,8 14 8 22 12 SW 0,0
22.09.2018 06:00:00 10,0 8,3 8,7 14 8 22 12 SW 0,0
22.09.2018 05:00:00 10,1 8,1 8,8 14 8 25 14 WSW 0,0
22.09.2018 04:00:00 9,5 8,5 8,2 11 6 18 10 SW 0,0
22.09.2018 03:00:00 10,6 9,1 10,1 14 8 32 18 WSW 0,6
22.09.2018 02:00:00 11,3 8,7 10,2 18 10 40 21 WSW 0,1
22.09.2018 01:00:00 11,2 9,2 10,4 11 6 32 18 W 1,1
22.09.2018 00:00:00 11,2 8,7 10,4 25 14 36 19 WSW 0,6
21.09.2018 23:00:00 10,3 9,1 9,9 11 6 29 16 NNW 0,5
21.09.2018 22:00:00 10,1 8,6 9,4 18 10 36 19 SSW 0,3
21.09.2018 21:00:00 10,1 8,3 9,4 14 8 36 19 WSW 0,8
21.09.2018 20:00:00 9,1 7,8 8,7 11 6 50 27 SSW 2,8
21.09.2018 19:00:00 13,6 6,0 12,6 29 16 54 29 WSW 0,1
21.09.2018 18:00:00 15,2 5,4 15,0 29 16 58 31 WSW 0,0
21.09.2018 17:00:00 15,7 5,6 15,7 36 19 58 31 WSW 0,0
21.09.2018 16:00:00 15,2 5,5 14,0 29 16 54 29 W 0,0
21.09.2018 15:00:00 14,7 6,6 14,2 29 16 54 29 W 0,0
21.09.2018 14:00:00 15,2 8,2 13,2 29 16 50 27 WSW 0,1
21.09.2018 13:00:00 15,5 8,7 15,2 25 14 47 25 W 0,0
21.09.2018 12:00:00 14,8 10,0 14,0 25 14 50 27 W 0,0
21.09.2018 11:00:00 16,0 11,1 15,3 25 14 50 27 WSW 0,0
21.09.2018 10:00:00 16,2 13,5 15,5 25 14 50 27 W 2,0
21.09.2018 09:00:00 16,5 15,1 16,3 25 14 58 31 SSW 1,1
21.09.2018 08:00:00 20,1 12,3 19,1 22 12 40 21 SSW 0,0
21.09.2018 07:00:00 19,6 12,6 18,5 14 8 36 19 S 0,0
21.09.2018 06:00:00 19,5 13,0 18,4 18 10 36 19 S 0,0
21.09.2018 05:00:00 19,4 13,0 18,1 14 8 32 18 S 0,0
21.09.2018 04:00:00 19,6 12,8 18,2 14 8 32 18 S 0,0
21.09.2018 03:00:00 19,2 12,7 17,8 14 8 25 14 S 0,0
21.09.2018 02:00:00 19,4 12,6 17,9 11 6 25 14 S 0,0
21.09.2018 01:00:00 20,0 12,6 18,5 14 8 29 16 S 0,0
21.09.2018 00:00:00 19,8 13,0 17,8 11 6 25 14 S 0,0
20.09.2018 23:00:00 18,7 12,9 15,5 7 4 18 10 SSE 0,0
20.09.2018 22:00:00 18,4 12,9 13,3 7 4 11 6 SSE 0,0
20.09.2018 21:00:00 17,8 13,1 12,7 4 2 7 4 S 0,0
20.09.2018 20:00:00 19,7 13,4 15,6 4 2 11 6 S 0,0
20.09.2018 19:00:00 21,9 13,3 19,8 7 4 22 12 SSW 0,0
20.09.2018 18:00:00 22,8 12,9 21,9 14 8 25 14 SW 0,0
20.09.2018 17:00:00 23,4 12,8 23,9 18 10 32 18 SSW 0,0
20.09.2018 16:00:00 22,7 13,6 23,5 18 10 36 19 SW 0,0
20.09.2018 15:00:00 23,1 13,6 24,8 22 12 43 23 SW 0,0
20.09.2018 14:00:00 22,5 13,8 24,2 29 16 47 25 SW 0,0
20.09.2018 13:00:00 21,2 14,5 22,5 22 12 40 21 SW 0,0
20.09.2018 12:00:00 20,7 14,8 21,2 18 10 36 19 SW 0,0
20.09.2018 11:00:00 19,9 15,2 20,7 11 6 22 12 S 0,0
20.09.2018 10:00:00 19,4 14,8 20,6 14 8 22 12 SSW 0,0
20.09.2018 09:00:00 17,5 14,0 17,3 11 6 18 10 SSW 0,0
20.09.2018 08:00:00 16,7 13,5 16,1 11 6 22 12 S 0,0
20.09.2018 07:00:00 16,3 13,5 14,9 7 4 14 8 S 0,0
20.09.2018 06:00:00 16,7 13,5 15,0 7 4 18 10 SSW 0,0
20.09.2018 05:00:00 17,4 13,6 15,9 11 6 25 14 SSW 0,0
20.09.2018 04:00:00 17,8 13,5 16,1 14 8 22 12 SSW 0,0
20.09.2018 03:00:00 17,8 13,3 16,3 11 6 22 12 S 0,0
20.09.2018 02:00:00 18,3 13,4 16,7 11 6 22 12 SSW 0,0
20.09.2018 01:00:00 18,7 13,2 17,1 14 8 22 12 SW 0,0
20.09.2018 00:00:00 18,7 13,3 17,1 11 6 22 12 SSW 0,0
19.09.2018 23:00:00 18,6 13,2 16,3 7 4 18 10 SSW 0,0
19.09.2018 22:00:00 19,0 12,9 16,5 7 4 18 10 SSW 0,0
19.09.2018 21:00:00 20,1 12,7 17,8 11 6 22 12 SW 0,0
19.09.2018 20:00:00 20,6 12,8 18,5 11 6 22 12 SW 0,0
19.09.2018 19:00:00 21,8 12,9 20,3 14 8 32 18 SW 0,0
19.09.2018 18:00:00 23,1 12,9 22,9 18 10 40 21 SW 0,0
19.09.2018 17:00:00 23,6 12,7 24,1 25 14 43 23 WSW 0,0
19.09.2018 16:00:00 23,9 13,0 24,8 22 12 43 23 SW 0,0
19.09.2018 15:00:00 23,5 13,2 23,9 22 12 40 21 SW 0,0
19.09.2018 14:00:00 22,8 13,9 23,0 25 14 43 23 WSW 0,0
19.09.2018 13:00:00 22,9 15,2 22,5 25 14 40 21 SW 0,0
19.09.2018 12:00:00 22,2 14,8 23,8 22 12 40 21 SW 0,0
19.09.2018 11:00:00 20,8 15,4 21,8 14 8 25 14 SSW 0,0

tt = Température de l'air
td = dewpoint
tt 5cm = Température de l'air 5cm
ff = Vitesse du vent
fx = gusts
dd = Direction du vent
rr = Quantités de précipitations

stations d'obs. à proximité